Time;durP1;ratioP1;P1;durP2;ratioP2;P2;SDS_P1;SDS_P2;PMS_P1;PMS_P2;Temp;Humidity;BMP_temperature;BMP_pressure;BME280_temperature;BME280_humidity;BME280_pressure;Samples;Min_cycle;Max_cycle;Signal;HPM_P1;HPM_P2
2023/12/20 00:04:37;;;;;;;11.90;7.60;;;;;;;5.23;76.74;98025.07;436351;1261;108465;-39
2023/12/20 00:14:45;;;;;;;14.40;7.90;;;;;;;5.21;77.39;98021.98;436344;1261;99353;-39
2023/12/20 00:24:51;;;;;;;14.70;9.30;;;;;;;5.14;77.98;98008.98;436327;1261;111672;-40
2023/12/20 00:34:57;;;;;;;20.00;11.50;;;;;;;5.00;78.76;97995.47;436457;1248;107731;-40
2023/12/20 00:45:06;;;;;;;18.30;12.10;;;;;;;4.90;79.21;98000.95;436074;1254;451993;-40
2023/12/20 00:55:13;;;;;;;17.10;9.00;;;;;;;4.87;79.53;97989.89;436470;1254;111998;-40
2023/12/20 01:05:22;;;;;;;13.70;8.70;;;;;;;4.91;79.95;97972.77;436455;1254;107617;-40
2023/12/20 01:15:30;;;;;;;13.60;8.00;;;;;;;4.98;80.33;97964.61;436341;1253;99244;-40
2023/12/20 01:25:37;;;;;;;16.80;9.10;;;;;;;5.03;80.78;97948.42;436443;1252;107609;-40
2023/12/20 01:35:44;;;;;;;15.20;9.70;;;;;;;5.09;81.00;97930.44;436197;1254;99237;-39
2023/12/20 01:45:52;;;;;;;12.90;9.80;;;;;;;5.16;81.38;97897.73;436276;1248;112063;-39
2023/12/20 01:56:00;;;;;;;20.90;11.20;;;;;;;5.09;81.53;97881.37;436281;1251;108256;-40
2023/12/20 02:06:08;;;;;;;20.70;11.00;;;;;;;5.03;81.79;97890.65;436449;1251;98279;-40
2023/12/20 02:16:15;;;;;;;13.60;9.30;;;;;;;4.95;82.18;97891.70;436382;1251;106926;-40
2023/12/20 02:26:22;;;;;;;13.00;9.10;;;;;;;4.87;82.63;97862.02;436355;1251;99247;-40
2023/12/20 02:36:29;;;;;;;10.80;7.90;;;;;;;4.95;83.20;97843.45;436959;1251;109768;-41
2023/12/20 02:46:36;;;;;;;12.40;8.80;;;;;;;4.99;83.38;97848.60;435881;1251;107933;-40
2023/12/20 02:56:43;;;;;;;11.30;7.10;;;;;;;5.03;83.76;97847.92;436079;1254;99218;-40
2023/12/20 03:06:49;;;;;;;13.70;9.00;;;;;;;5.04;84.33;97852.60;436106;1254;108459;-39
2023/12/20 03:16:55;;;;;;;16.30;8.90;;;;;;;4.99;84.66;97843.04;436193;1253;98359;-39
2023/12/20 03:27:05;;;;;;;11.90;8.50;;;;;;;4.99;84.84;97841.70;436014;1253;111077;-41
2023/12/20 03:37:12;;;;;;;14.00;8.70;;;;;;;5.03;84.97;97838.21;435942;1248;107212;-41
2023/12/20 03:47:18;;;;;;;8.90;6.70;;;;;;;5.11;85.12;97827.45;436040;1253;98004;-40
2023/12/20 03:57:25;;;;;;;8.90;7.30;;;;;;;5.15;85.34;97827.36;435917;1251;108432;-39
2023/12/20 04:07:34;;;;;;;16.20;10.80;;;;;;;5.10;85.77;97824.13;436018;1258;98578;-39
2023/12/20 04:17:41;;;;;;;18.40;10.30;;;;;;;5.02;85.89;97825.98;436108;1252;110639;-40
2023/12/20 04:27:48;;;;;;;10.20;8.50;;;;;;;5.00;86.02;97816.91;435977;1248;107613;-40
2023/12/20 04:37:55;;;;;;;9.20;7.50;;;;;;;5.06;86.14;97813.92;435962;1252;97921;-40
2023/12/20 04:48:02;;;;;;;7.90;6.40;;;;;;;5.10;86.36;97816.42;435858;1253;109056;-40
2023/12/20 04:58:10;;;;;;;9.10;7.00;;;;;;;5.11;86.86;97821.37;435749;1251;99227;-39
2023/12/20 05:08:17;;;;;;;10.80;7.10;;;;;;;5.12;86.93;97822.98;435896;1251;111802;-40
2023/12/20 05:18:24;;;;;;;12.20;9.60;;;;;;;5.03;87.54;97820.55;436014;1252;107320;-39
2023/12/20 05:28:31;;;;;;;9.60;7.80;;;;;;;4.94;87.75;97817.88;435833;1250;98164;-40
2023/12/20 05:38:38;;;;;;;9.50;7.50;;;;;;;4.88;88.05;97814.26;435811;1253;107417;-39
2023/12/20 05:48:45;;;;;;;8.70;7.50;;;;;;;4.87;88.10;97813.65;435937;1253;99057;-39
2023/12/20 06:08:57;;;;;;;8.90;5.40;;;;;;;4.87;88.73;97793.75;436140;1249;107011;-40
2023/12/20 06:19:05;;;;;;;7.20;5.40;;;;;;;4.87;88.67;97793.05;435892;1253;99260;-40
2023/12/20 06:29:11;;;;;;;11.00;7.90;;;;;;;4.79;88.79;97800.34;435985;1253;107954;-40
2023/12/20 06:39:18;;;;;;;9.40;6.20;;;;;;;4.65;88.98;97812.23;435962;1271;99295;-39
2023/12/20 06:49:25;;;;;;;14.50;9.70;;;;;;;4.57;88.92;97814.46;435849;1253;111204;-40
2023/12/20 06:59:31;;;;;;;55.90;26.80;;;;;;;4.58;89.10;97815.91;435915;1249;108276;-40
2023/12/20 07:09:38;;;;;;;12.10;8.80;;;;;;;4.61;89.33;97826.84;435765;1253;97982;-40
2023/12/20 07:19:46;;;;;;;47.70;26.30;;;;;;;4.67;89.12;97838.00;435752;1253;109404;-39
2023/12/20 07:29:53;;;;;;;52.30;25.90;;;;;;;4.55;89.46;97841.90;435878;1253;97986;-40
2023/12/20 07:39:59;;;;;;;13.30;8.30;;;;;;;4.40;89.60;97846.01;435776;1250;113140;-41
2023/12/20 07:50:06;;;;;;;11.40;7.20;;;;;;;4.32;90.32;97845.38;436198;1251;108574;-40
2023/12/20 08:00:15;;;;;;;8.70;5.60;;;;;;;4.24;90.49;97841.73;435809;1253;99346;-40
2023/12/20 08:10:22;;;;;;;23.20;11.40;;;;;;;4.23;90.12;97841.29;435981;1253;107683;-40
2023/12/20 08:20:27;;;;;;;6.40;4.70;;;;;;;4.27;90.24;97840.58;435732;1251;99244;-40
2023/12/20 08:30:46;;;;;;;6.40;4.80;;;;;;;4.28;90.46;97838.27;435785;1248;110748;-39
2023/12/20 08:40:53;;;;;;;10.10;6.80;;;;;;;4.16;90.55;97854.73;435844;1253;107680;-39
2023/12/20 08:51:00;;;;;;;5.00;3.80;;;;;;;4.13;90.51;97857.73;435711;1253;99300;-39
2023/12/20 09:21:21;;;;;;;7.90;5.40;;;;;;;4.39;90.83;97850.94;435632;1253;112357;-39
2023/12/20 09:31:29;;;;;;;10.90;7.00;;;;;;;4.37;90.94;97843.21;435700;1250;108250;-41
2023/12/20 09:41:43;;;;;;;5.90;4.10;;;;;;;4.27;91.08;97836.81;435594;1252;99221;-39
2023/12/20 09:51:54;;;;;;;5.00;3.60;;;;;;;4.27;90.96;97826.67;435493;1249;109547;-39
2023/12/20 10:02:03;;;;;;;6.40;4.10;;;;;;;4.32;91.33;97823.70;435722;1253;99243;-40
2023/12/20 10:12:10;;;;;;;10.30;5.40;;;;;;;4.29;91.97;97822.09;435734;1253;110867;-39
2023/12/20 10:22:18;;;;;;;39.70;14.80;;;;;;;4.30;92.06;97810.60;435718;1251;107377;-39
2023/12/20 10:32:25;;;;;;;22.30;9.50;;;;;;;4.34;92.09;97808.64;435849;1253;99222;-40
2023/12/20 10:42:33;;;;;;;27.50;12.00;;;;;;;4.25;92.53;97809.32;435824;1253;108836;-39
2023/12/20 10:52:41;;;;;;;8.40;5.20;;;;;;;4.30;92.38;97808.17;435702;1250;99106;-39
2023/12/20 11:02:50;;;;;;;13.50;7.40;;;;;;;4.38;92.63;97796.50;435694;1253;112479;-40
2023/12/20 11:12:58;;;;;;;10.30;4.90;;;;;;;4.47;92.65;97797.04;435508;1253;108558;-39
2023/12/20 11:23:07;;;;;;;8.60;5.80;;;;;;;4.52;92.77;97794.08;435559;1253;99228;-40
2023/12/20 11:33:13;;;;;;;8.40;5.40;;;;;;;4.60;92.75;97793.50;435760;1250;108084;-39
2023/12/20 11:53:36;;;;;;;8.10;5.30;;;;;;;4.42;93.11;97785.95;435786;1253;110367;-39
2023/12/20 12:03:44;;;;;;;2.40;1.70;;;;;;;4.38;93.28;97788.19;435729;1249;107839;-40
2023/12/20 12:13:49;;;;;;;6.20;2.80;;;;;;;4.32;93.40;97774.44;435637;1251;99330;-39
2023/12/20 12:24:07;;;;;;;5.60;2.70;;;;;;;4.29;93.58;97779.37;435625;1250;108137;-38
2023/12/20 12:34:14;;;;;;;4.00;2.90;;;;;;;4.33;93.85;97764.48;435689;1253;99254;-39
2023/12/20 12:44:23;;;;;;;6.30;3.80;;;;;;;4.44;94.04;97760.13;435331;1253;430236;-38
2023/12/20 12:54:30;;;;;;;5.90;3.50;;;;;;;4.45;93.94;97755.45;435583;1253;107210;-39
2023/12/20 13:04:36;;;;;;;6.80;3.60;;;;;;;4.54;93.60;97741.05;435577;1262;99842;-40
2023/12/20 13:14:45;;;;;;;11.50;5.50;;;;;;;4.66;93.61;97731.52;435545;1252;108388;-40
2023/12/20 13:24:52;;;;;;;8.90;3.90;;;;;;;4.54;93.50;97732.81;435421;1253;99317;-39
2023/12/20 13:34:58;;;;;;;8.50;4.50;;;;;;;4.49;93.30;97736.25;435669;1253;111767;-39
2023/12/20 13:45:06;;;;;;;9.40;4.70;;;;;;;4.53;93.06;97728.98;435740;1250;108611;-41
2023/12/20 13:55:13;;;;;;;57.10;22.90;;;;;;;4.51;93.00;97734.80;435540;1253;99202;-39
2023/12/20 14:05:20;;;;;;;23.90;11.70;;;;;;;4.41;93.02;97739.58;435568;1253;108332;-39
2023/12/20 14:15:36;;;;;;;16.90;7.80;;;;;;;4.36;92.86;97737.55;435643;1253;98030;-40
2023/12/20 14:25:43;;;;;;;10.50;7.40;;;;;;;4.30;92.76;97735.35;435513;1252;110302;-40
2023/12/20 14:35:57;;;;;;;8.10;4.00;;;;;;;4.26;92.73;97728.89;435555;1250;108439;-40
2023/12/20 14:56:08;;;;;;;11.40;6.50;;;;;;;4.09;92.93;97733.74;435718;1253;108745;-39
2023/12/20 15:16:30;;;;;;;8.10;6.20;;;;;;;4.11;92.96;97741.22;435620;1253;112179;-39
2023/12/20 15:26:40;;;;;;;7.90;5.40;;;;;;;4.10;93.05;97736.34;435419;1254;107411;-40
2023/12/20 15:46:55;;;;;;;20.50;10.20;;;;;;;4.01;92.95;97706.98;435683;1253;108997;-39
2023/12/20 15:57:02;;;;;;;17.40;10.20;;;;;;;3.95;92.85;97707.56;435938;1253;99212;-40
2023/12/20 16:07:09;;;;;;;7.70;5.60;;;;;;;3.98;92.87;97700.66;436148;1253;111004;-40
2023/12/20 16:27:22;;;;;;;16.60;11.10;;;;;;;4.03;92.85;97683.83;435646;1261;99215;-39
2023/12/20 16:37:28;;;;;;;17.00;11.00;;;;;;;3.97;92.93;97673.31;435691;1250;108456;-39
2023/12/20 17:07:47;;;;;;;22.50;12.90;;;;;;;3.95;92.64;97667.09;435550;1261;106849;-40
2023/12/20 17:17:55;;;;;;;15.40;9.70;;;;;;;3.87;92.58;97658.45;435848;1253;97977;-39
2023/12/20 17:28:03;;;;;;;13.00;7.10;;;;;;;3.91;92.35;97665.83;435728;1253;111833;-40
2023/12/20 17:48:14;;;;;;;10.40;6.40;;;;;;;3.98;92.24;97640.45;435479;1254;99236;-40
2023/12/20 17:58:20;;;;;;;7.20;4.00;;;;;;;4.03;91.92;97624.18;435281;1258;107897;-39
2023/12/20 18:08:26;;;;;;;9.90;4.20;;;;;;;4.10;91.45;97632.74;435412;1254;99252;-40
2023/12/20 18:28:41;;;;;;;15.10;4.90;;;;;;;4.06;90.93;97629.05;435448;1263;108044;-41
2023/12/20 18:38:48;;;;;;;9.00;4.60;;;;;;;4.05;90.70;97619.20;436020;1253;99218;-40
2023/12/20 18:48:54;;;;;;;13.80;7.70;;;;;;;3.98;90.77;97618.94;435939;1255;108940;-40
2023/12/20 19:19:15;;;;;;;8.70;4.40;;;;;;;4.10;90.18;97635.86;435779;1261;107564;-39
2023/12/20 19:29:23;;;;;;;12.90;6.20;;;;;;;4.11;89.93;97633.30;435674;1253;98017;-40
2023/12/20 19:49:35;;;;;;;11.30;4.40;;;;;;;4.18;89.14;97628.02;435897;1261;99555;-39
2023/12/20 20:09:48;;;;;;;8.30;4.10;;;;;;;4.35;88.08;97619.39;435890;1251;107329;-40
2023/12/20 20:19:56;;;;;;;10.00;3.90;;;;;;;4.39;87.29;97624.63;435995;1253;98393;-40
2023/12/20 20:40:11;;;;;;;6.80;3.50;;;;;;;4.44;86.35;97641.02;435952;1250;107392;-40
2023/12/20 20:50:18;;;;;;;8.00;4.20;;;;;;;4.37;86.07;97650.89;436052;1254;99277;-41
2023/12/20 21:00:26;;;;;;;6.20;3.00;;;;;;;4.32;85.74;97667.09;435873;1261;111135;-39
2023/12/20 21:10:31;;;;;;;25.10;10.00;;;;;;;4.31;85.99;97685.70;436804;1251;108289;-40
2023/12/20 21:20:38;;;;;;;26.50;12.20;;;;;;;4.15;86.20;97693.38;435936;1251;99221;-38
2023/12/20 21:50:59;;;;;;;6.40;4.50;;;;;;;3.68;86.80;97669.41;436684;1254;111865;-40
2023/12/20 22:01:04;;;;;;;8.40;3.20;;;;;;;3.57;87.19;97666.63;437013;1254;108161;-39
2023/12/20 22:11:11;;;;;;;5.20;2.60;;;;;;;3.54;87.36;97655.97;435915;1254;99231;-39
2023/12/20 22:21:19;;;;;;;11.10;3.80;;;;;;;3.54;87.76;97649.74;436040;1254;106629;-40
2023/12/20 22:31:26;;;;;;;11.00;4.80;;;;;;;3.49;88.14;97656.79;436019;1250;98930;-39
2023/12/20 22:51:39;;;;;;;2.70;1.90;;;;;;;3.53;88.51;97641.38;436043;1250;106847;-41
2023/12/20 23:01:46;;;;;;;5.40;2.90;;;;;;;3.49;88.95;97637.05;435912;1251;98633;-40
2023/12/20 23:11:53;;;;;;;2.10;1.90;;;;;;;3.39;89.31;97628.90;436035;1254;107597;-39
2023/12/20 23:22:00;;;;;;;3.50;2.40;;;;;;;3.34;89.29;97610.33;436097;1252;99264;-39
2023/12/20 23:32:08;;;;;;;4.50;2.30;;;;;;;3.32;89.54;97593.73;435989;1248;111994;-40
2023/12/20 23:42:17;;;;;;;11.00;4.50;;;;;;;3.28;89.68;97586.63;435965;1254;106934;-39
